Time;durP1;ratioP1;P1;durP2;ratioP2;P2;SDS_P1;SDS_P2;PMS_P1;PMS_P2;Temp;Humidity;BMP_temperature;BMP_pressure;BME280_temperature;BME280_humidity;BME280_pressure;Samples;Min_cycle;Max_cycle;Signal;HPM_P1;HPM_P2
2021/03/22 00:01:41;;;;;;;11.03;9.07;;;;;;;5.47;69.83;98597.63;5075466;28;20158;-77
2021/03/22 00:04:08;;;;;;;11.27;8.90;;;;;;;5.36;69.97;98567.41;5075156;28;20036;-77
2021/03/22 00:06:33;;;;;;;12.50;9.63;;;;;;;4.82;70.12;98487.09;5075126;28;20116;-77
2021/03/22 00:08:58;;;;;;;14.37;10.43;;;;;;;5.41;70.13;98580.81;5075140;28;20095;-77
2021/03/22 00:11:24;;;;;;;15.20;11.47;;;;;;;5.54;70.21;98585.50;5075362;28;20024;-77
2021/03/22 00:13:49;;;;;;;11.40;8.60;;;;;;;5.28;70.08;98535.22;5075028;28;20028;-77
2021/03/22 00:16:16;;;;;;;13.20;9.23;;;;;;;5.12;69.90;98483.72;5073909;28;20324;-77
2021/03/22 00:18:43;;;;;;;10.87;8.40;;;;;;;5.51;70.06;98551.00;5075016;28;20450;-77
2021/03/22 00:21:10;;;;;;;10.33;8.13;;;;;;;5.52;70.18;98553.44;5074810;28;20430;-77
2021/03/22 00:23:36;;;;;;;10.70;8.17;;;;;;;5.57;69.89;98540.66;5073736;28;20056;-77
2021/03/22 00:26:03;;;;;;;10.27;8.53;;;;;;;5.43;69.98;98530.91;5073754;28;20435;-78
2021/03/22 00:28:29;;;;;;;15.33;11.30;;;;;;;5.47;70.05;98534.81;5074836;28;20037;-77
2021/03/22 00:30:55;;;;;;;13.67;10.27;;;;;;;5.38;69.87;98515.69;5074855;28;20025;-76
2021/03/22 00:33:23;;;;;;;13.73;10.00;;;;;;;5.40;70.09;98491.97;5073769;28;20020;-77
2021/03/22 00:35:48;;;;;;;13.37;9.23;;;;;;;5.32;70.04;98477.13;5074766;28;20082;-77
2021/03/22 00:38:16;;;;;;;9.93;7.47;;;;;;;5.48;70.32;98493.75;5074358;28;20028;-77
2021/03/22 00:40:44;;;;;;;9.63;7.63;;;;;;;5.33;70.34;98473.53;5075259;28;20430;-78
2021/03/22 00:43:10;;;;;;;14.03;9.30;;;;;;;5.56;70.28;98485.84;5074644;28;20021;-77
2021/03/22 00:45:36;;;;;;;13.47;9.73;;;;;;;5.38;70.27;98462.53;5073584;28;20436;-77
2021/03/22 00:48:03;;;;;;;11.23;8.30;;;;;;;5.58;70.20;98476.81;5074706;28;20101;-77
2021/03/22 00:50:34;;;;;;;12.33;8.83;;;;;;;5.64;69.84;98473.53;5075216;28;20032;-76
2021/03/22 00:53:00;;;;;;;15.65;10.00;;;;;;;5.33;70.20;98417.75;5074814;28;20330;-77
2021/03/22 00:55:26;;;;;;;13.50;9.20;;;;;;;5.61;70.33;98468.63;5073449;28;20032;-76
2021/03/22 00:57:52;;;;;;;14.67;9.53;;;;;;;5.33;70.37;98425.59;5073385;28;20107;-77
2021/03/22 01:00:28;;;;;;;16.07;11.37;;;;;;;5.55;70.18;98448.38;5074386;28;20400;-76
2021/03/22 01:02:54;;;;;;;13.37;10.30;;;;;;;5.49;70.80;98448.25;5074549;28;20059;-77
2021/03/22 01:05:21;;;;;;;15.00;11.13;;;;;;;5.56;70.58;98450.00;5074734;28;20027;-76
2021/03/22 01:07:47;;;;;;;15.07;11.73;;;;;;;5.48;70.69;98416.00;5074948;28;20017;-76
2021/03/22 01:10:41;;;;;;;14.57;10.90;;;;;;;5.61;70.94;98425.91;5074460;28;20028;-77
2021/03/22 01:13:11;;;;;;;17.73;11.73;;;;;;;5.64;70.86;98444.72;5074321;28;20378;-77
2021/03/22 01:15:37;;;;;;;18.30;12.13;;;;;;;5.44;71.05;98399.03;5074445;28;20016;-77
2021/03/22 01:18:03;;;;;;;18.17;12.97;;;;;;;5.71;70.85;98437.78;5074109;28;20387;-77
2021/03/22 01:20:40;;;;;;;21.27;14.47;;;;;;;5.69;70.69;98405.72;5074300;28;20024;-77
2021/03/22 01:23:07;;;;;;;21.27;13.77;;;;;;;4.90;70.80;98275.22;5072992;28;20072;-77
2021/03/22 01:25:33;;;;;;;19.23;13.33;;;;;;;5.51;70.67;98362.50;5074248;28;20044;-77
2021/03/22 01:27:58;;;;;;;23.03;15.37;;;;;;;5.48;70.67;98349.75;5074255;28;20334;-76
2021/03/22 01:30:50;;;;;;;22.23;14.70;;;;;;;5.29;70.44;98314.41;5072988;28;20021;-77
2021/03/22 01:33:19;;;;;;;26.02;16.30;;;;;;;5.69;70.75;98363.00;5074134;28;20020;-77
2021/03/22 01:35:45;;;;;;;23.53;15.53;;;;;;;5.82;70.43;98362.41;5074192;28;20027;-76
2021/03/22 01:38:11;;;;;;;21.23;13.97;;;;;;;5.32;70.40;98299.16;5074040;28;20103;-76
2021/03/22 01:41:07;;;;;;;19.10;12.70;;;;;;;5.76;71.08;98377.03;5074224;28;20055;-76
2021/03/22 01:44:02;;;;;;;20.33;13.43;;;;;;;5.80;71.01;98354.75;5074188;28;20423;-76
2021/03/22 01:46:29;;;;;;;22.73;13.73;;;;;;;5.83;70.98;98367.47;5057959;28;20037;-77
2021/03/22 01:48:55;;;;;;;23.07;16.43;;;;;;;5.86;70.77;98361.88;5074130;28;20484;-76
2021/03/22 01:51:20;;;;;;;23.10;16.03;;;;;;;5.77;70.90;98347.22;5075911;28;20025;-76
2021/03/22 01:53:47;;;;;;;26.20;17.47;;;;;;;5.89;70.75;98345.00;5077589;28;20423;-76
2021/03/22 01:56:28;;;;;;;20.27;13.47;;;;;;;5.86;70.92;98359.28;5077881;28;20020;-76
2021/03/22 01:58:53;;;;;;;20.20;14.63;;;;;;;5.25;70.88;98245.91;5077791;28;20021;-77
2021/03/22 02:01:21;;;;;;;19.83;13.70;;;;;;;5.85;70.75;98348.97;5076482;28;20031;-77
2021/03/22 02:03:47;;;;;;;18.30;11.70;;;;;;;5.72;71.11;98326.00;5077644;28;20119;-76
2021/03/22 02:06:13;;;;;;;15.97;10.47;;;;;;;5.82;70.93;98328.38;5077381;28;20021;-77
2021/03/22 02:08:41;;;;;;;13.17;10.03;;;;;;;5.84;70.78;98331.63;5076359;28;20373;-76
2021/03/22 02:11:26;;;;;;;14.10;9.37;;;;;;;5.69;70.86;98323.72;5076255;28;20335;-76
2021/03/22 02:13:58;;;;;;;12.90;9.60;;;;;;;5.74;70.81;98314.34;5077438;28;20024;-75
2021/03/22 02:16:27;;;;;;;;;;;;;;;5.60;71.34;98330.84;5077716;28;20343;-76
2021/03/22 02:19:30;;;;;;;14.13;9.63;;;;;;;5.63;71.21;98329.69;5077067;28;20014;-75
2021/03/22 02:22:10;;;;;;;16.10;10.10;;;;;;;5.57;72.05;98320.72;5077426;28;20128;-75
2021/03/22 02:25:10;;;;;;;14.30;9.27;;;;;;;5.58;71.72;98327.59;5077342;28;20470;-76
2021/03/22 02:28:10;;;;;;;50.47;25.87;;;;;;;5.61;71.49;98342.13;5077327;28;20020;-76
2021/03/22 02:30:47;;;;;;;16.20;10.73;;;;;;;5.55;71.66;98319.28;5077332;28;20081;-76
2021/03/22 02:33:34;;;;;;;17.10;10.90;;;;;;;5.68;71.35;98338.63;5076684;28;20028;-75
2021/03/22 02:36:14;;;;;;;17.73;11.17;;;;;;;5.71;71.29;98340.09;5076083;28;20346;-75
2021/03/22 02:38:49;;;;;;;17.10;11.40;;;;;;;5.45;71.33;98295.13;5077133;28;20020;-75
2021/03/22 02:41:34;;;;;;;16.13;10.03;;;;;;;5.49;71.16;98283.31;5076872;28;20024;-75
2021/03/22 02:44:05;;;;;;;17.10;9.27;;;;;;;5.22;71.26;98219.28;5076743;28;20100;-75
2021/03/22 02:46:31;;;;;;;17.47;9.73;;;;;;;5.71;71.16;98317.34;5075740;28;20078;-75
2021/03/22 02:48:57;;;;;;;13.80;8.97;;;;;;;5.71;71.37;98316.50;5076809;28;20017;-75
2021/03/22 02:51:36;;;;;;;12.10;8.83;;;;;;;5.33;71.88;98251.06;5076695;28;20028;-75
2021/03/22 02:54:11;;;;;;;16.07;9.17;;;;;;;5.71;71.43;98306.84;5076674;28;20021;-75
2021/03/22 02:56:54;;;;;;;14.77;9.47;;;;;;;5.17;71.85;98214.53;5076425;28;20037;-75
2021/03/22 02:59:29;;;;;;;16.07;9.63;;;;;;;5.79;71.51;98303.34;5076529;28;20031;-75
2021/03/22 03:02:02;;;;;;;13.30;9.47;;;;;;;5.74;71.18;98285.56;5075342;28;20024;-75
2021/03/22 03:04:29;;;;;;;13.40;10.37;;;;;;;5.43;71.53;98245.59;5076337;28;20086;-75
2021/03/22 03:06:58;;;;;;;14.90;10.63;;;;;;;5.82;71.63;98302.19;5075325;28;20090;-75
2021/03/22 03:09:29;;;;;;;36.83;20.60;;;;;;;5.84;71.60;98305.44;5075052;28;20029;-75
2021/03/22 03:11:56;;;;;;;31.73;19.02;;;;;;;5.87;71.46;98291.97;5076389;28;20021;-75
2021/03/22 03:14:23;;;;;;;20.43;13.43;;;;;;;5.69;71.58;98263.50;5075034;28;20465;-75
2021/03/22 03:16:49;;;;;;;18.13;11.77;;;;;;;5.43;71.50;98203.69;5075072;28;20032;-75
2021/03/22 03:19:14;;;;;;;11.50;8.67;;;;;;;5.67;71.48;98242.75;5074898;28;20024;-75
2021/03/22 03:21:40;;;;;;;7.63;6.27;;;;;;;5.86;71.45;98267.59;5075014;28;20074;-75
2021/03/22 03:24:08;;;;;;;7.90;6.17;;;;;;;5.85;71.93;98288.72;5075784;28;20076;-76
2021/03/22 03:26:35;;;;;;;8.27;6.47;;;;;;;5.91;71.78;98288.03;5076200;28;20485;-75
2021/03/22 03:29:00;;;;;;;8.43;6.17;;;;;;;5.82;71.69;98265.50;5075936;28;20021;-76
2021/03/22 03:31:25;;;;;;;7.67;5.93;;;;;;;5.96;71.40;98262.16;5075854;28;20024;-76
2021/03/22 03:33:51;;;;;;;6.67;5.50;;;;;;;5.88;71.75;98241.22;5075917;28;20032;-75
2021/03/22 03:36:17;;;;;;;6.73;4.77;;;;;;;5.99;71.84;98270.47;5075732;28;20021;-76
2021/03/22 03:38:42;;;;;;;6.37;4.70;;;;;;;5.99;71.93;98269.66;5074685;28;20485;-76
2021/03/22 03:41:08;;;;;;;6.00;4.63;;;;;;;6.01;71.72;98259.81;5078249;28;20032;-76
2021/03/22 03:43:33;;;;;;;6.37;4.63;;;;;;;6.04;71.75;98272.53;5076403;28;20031;-78
2021/03/22 03:45:58;;;;;;;6.53;5.83;;;;;;;5.96;71.65;98262.16;5075888;28;20036;-75
2021/03/22 03:48:26;;;;;;;6.00;5.20;;;;;;;6.02;71.99;98280.59;5075497;28;20025;-76
2021/03/22 03:50:59;;;;;;;6.77;5.03;;;;;;;6.04;71.76;98286.47;5074417;28;20042;-77
2021/03/22 03:53:26;;;;;;;7.80;6.20;;;;;;;5.94;71.83;98251.81;5075504;28;20388;-76
2021/03/22 03:55:52;;;;;;;7.33;4.87;;;;;;;5.59;71.67;98208.78;5075489;28;20423;-76
2021/03/22 03:58:17;;;;;;;5.53;4.80;;;;;;;6.06;71.60;98281.03;5075135;28;20025;-76
2021/03/22 04:00:45;;;;;;;5.97;5.27;;;;;;;6.05;72.05;98269.75;5075378;28;20126;-75
2021/03/22 04:03:31;;;;;;;5.97;5.20;;;;;;;6.09;71.84;98285.09;5075122;28;20028;-76
2021/03/22 04:06:02;;;;;;;6.37;5.73;;;;;;;6.09;71.48;98275.44;5075107;28;20103;-76
2021/03/22 04:08:29;;;;;;;7.80;5.60;;;;;;;6.10;71.61;98274.44;5075005;28;20017;-75
2021/03/22 04:10:56;;;;;;;8.37;5.97;;;;;;;5.49;71.41;98176.00;5074296;28;20338;-75
2021/03/22 04:13:22;;;;;;;6.47;5.87;;;;;;;6.04;71.75;98254.19;5074776;28;20082;-76
2021/03/22 04:15:48;;;;;;;6.57;5.07;;;;;;;6.12;71.35;98269.03;5075152;28;20028;-75
2021/03/22 04:18:14;;;;;;;6.27;4.47;;;;;;;5.74;71.68;98217.47;5073762;28;20042;-75
2021/03/22 04:20:39;;;;;;;4.83;4.27;;;;;;;6.15;71.49;98260.78;5074907;28;20025;-76
2021/03/22 04:23:05;;;;;;;6.33;5.53;;;;;;;6.00;71.65;98238.03;5074898;28;20056;-77
2021/03/22 04:25:30;;;;;;;6.43;5.00;;;;;;;5.36;71.82;98129.50;5074912;28;20373;-78
2021/03/22 04:27:56;;;;;;;4.87;4.37;;;;;;;6.17;71.69;98264.06;5073769;28;20024;-77
2021/03/22 04:30:22;;;;;;;6.03;5.43;;;;;;;5.94;71.80;98215.16;5073644;28;20068;-76
2021/03/22 04:32:48;;;;;;;7.30;5.90;;;;;;;5.87;71.59;98208.97;5074963;28;20115;-77
2021/03/22 04:35:13;;;;;;;7.03;6.33;;;;;;;6.11;71.31;98255.09;5074587;28;20035;-76
2021/03/22 04:37:39;;;;;;;8.10;6.10;;;;;;;6.16;71.71;98258.00;5073543;28;20065;-75
2021/03/22 04:40:06;;;;;;;7.70;6.17;;;;;;;6.14;71.41;98257.38;5074826;28;20032;-77
2021/03/22 04:42:32;;;;;;;6.30;5.40;;;;;;;5.94;71.51;98227.44;5074852;28;20059;-78
2021/03/22 04:44:58;;;;;;;6.67;5.50;;;;;;;6.16;71.53;98252.75;5074696;28;20032;-77
2021/03/22 04:47:23;;;;;;;6.73;5.70;;;;;;;5.88;71.30;98199.31;5075821;28;20016;-76
2021/03/22 04:49:48;;;;;;;6.37;5.77;;;;;;;5.97;71.62;98222.66;5076548;28;20036;-77
2021/03/22 04:52:14;;;;;;;6.43;5.47;;;;;;;6.11;71.71;98238.56;5073243;28;20028;-76
2021/03/22 04:54:39;;;;;;;7.47;6.40;;;;;;;6.14;71.58;98246.88;5073581;28;20058;-76
2021/03/22 04:57:24;;;;;;;7.57;6.47;;;;;;;6.16;71.63;98254.56;5073465;28;20029;-75
2021/03/22 04:59:50;;;;;;;7.53;5.77;;;;;;;6.10;71.61;98240.38;5074662;28;20031;-76
2021/03/22 05:02:16;;;;;;;7.03;5.63;;;;;;;5.72;71.40;98181.97;5074494;28;20035;-77
2021/03/22 05:04:41;;;;;;;6.43;5.73;;;;;;;6.13;71.50;98252.31;5074582;28;20032;-75
2021/03/22 05:07:07;;;;;;;7.43;6.17;;;;;;;5.40;71.45;98133.38;5073407;28;20023;-76
2021/03/22 05:09:32;;;;;;;6.63;5.93;;;;;;;6.10;71.55;98248.25;5074298;28;20438;-75
2021/03/22 05:11:57;;;;;;;7.53;6.60;;;;;;;5.50;71.68;98152.25;5074555;28;20066;-76
2021/03/22 05:14:23;;;;;;;8.47;7.27;;;;;;;5.84;71.68;98232.09;5074355;28;20082;-75
2021/03/22 05:16:48;;;;;;;8.10;7.30;;;;;;;5.71;71.76;98206.53;5074575;28;20145;-77
2021/03/22 05:19:14;;;;;;;9.40;7.20;;;;;;;5.62;71.56;98205.00;5074238;28;20024;-77
2021/03/22 05:21:39;;;;;;;7.00;6.27;;;;;;;6.12;71.54;98274.25;5073216;28;20024;-76
2021/03/22 05:24:05;;;;;;;9.80;8.77;;;;;;;6.10;71.70;98258.72;5074218;28;20045;-77
2021/03/22 05:26:30;;;;;;;9.77;8.53;;;;;;;6.05;71.71;98247.97;5076726;28;20035;-77
2021/03/22 05:28:56;;;;;;;9.80;8.47;;;;;;;5.47;71.33;98146.56;5078317;28;20059;-77
2021/03/22 05:31:21;;;;;;;9.87;8.83;;;;;;;5.46;71.94;98158.84;5078074;28;20031;-77
2021/03/22 05:33:46;;;;;;;11.30;9.57;;;;;;;6.08;71.71;98262.50;5077298;28;20028;-76
2021/03/22 05:36:12;;;;;;;15.23;11.33;;;;;;;5.47;71.71;98157.03;5077896;28;20025;-77
2021/03/22 05:38:38;;;;;;;17.23;12.73;;;;;;;6.10;71.91;98245.63;5078102;28;20025;-77
2021/03/22 05:41:13;;;;;;;11.37;9.23;;;;;;;6.17;71.60;98251.75;5078266;28;20073;-77
2021/03/22 05:43:42;;;;;;;14.77;11.97;;;;;;;6.24;71.28;98251.84;5078212;28;20020;-77
2021/03/22 05:46:26;;;;;;;15.87;12.47;;;;;;;6.31;71.35;98248.31;5077842;28;20032;-76
2021/03/22 05:49:06;;;;;;;19.40;13.40;;;;;;;6.10;71.12;98211.56;5077811;28;20331;-74
2021/03/22 05:51:54;;;;;;;17.83;13.20;;;;;;;6.42;71.57;98254.09;5077620;28;20020;-76
2021/03/22 05:54:35;;;;;;;19.33;14.67;;;;;;;6.44;71.08;98241.59;5081996;28;20058;-77
2021/03/22 05:57:06;;;;;;;17.70;12.43;;;;;;;6.48;70.75;98229.75;5079565;28;20427;-74
2021/03/22 05:59:37;;;;;;;25.57;18.00;;;;;;;6.52;70.51;98229.19;5077745;28;20020;-75
2021/03/22 06:02:38;;;;;;;28.73;17.77;;;;;;;6.34;70.40;98208.63;5076671;28;20048;-74
2021/03/22 06:05:19;;;;;;;34.17;20.70;;;;;;;6.55;70.50;98257.69;5077700;28;20020;-75
2021/03/22 06:07:52;;;;;;;24.80;13.23;;;;;;;6.37;70.20;98244.97;5077624;28;20081;-77
2021/03/22 06:10:21;;;;;;;20.67;12.57;;;;;;;6.43;70.45;98266.19;5077575;28;20107;-77
2021/03/22 06:12:54;;;;;;;12.43;9.07;;;;;;;5.65;70.33;98150.47;5077549;28;20466;-76
2021/03/22 06:15:35;;;;;;;11.33;7.53;;;;;;;6.32;71.14;98251.75;5077396;28;20029;-75
2021/03/22 06:18:28;;;;;;;8.87;7.33;;;;;;;6.27;70.25;98257.53;5077463;28;20035;-74
2021/03/22 06:20:56;;;;;;;10.10;7.70;;;;;;;6.16;70.68;98252.75;5077606;28;20545;-77
2021/03/22 06:23:41;;;;;;;6.97;5.83;;;;;;;6.10;70.99;98258.72;5076055;28;20453;-75
2021/03/22 06:26:26;;;;;;;6.57;5.03;;;;;;;5.80;71.02;98226.41;5077321;28;20118;-75
2021/03/22 06:28:58;;;;;;;7.70;6.50;;;;;;;5.97;71.03;98269.00;5062571;28;20036;-77
2021/03/22 06:31:24;;;;;;;6.40;5.57;;;;;;;5.83;70.94;98264.50;5077158;28;20024;-75
2021/03/22 06:33:54;;;;;;;5.67;5.07;;;;;;;5.35;70.95;98209.00;5077085;28;20025;-75
2021/03/22 06:36:22;;;;;;;4.37;3.93;;;;;;;5.81;70.37;98279.59;5076401;28;20512;-75
2021/03/22 06:38:51;;;;;;;7.00;5.23;;;;;;;5.28;70.98;98213.31;5076939;28;20021;-76
2021/03/22 06:41:48;;;;;;;4.33;3.93;;;;;;;5.68;71.38;98288.88;5076718;28;20085;-75
2021/03/22 06:44:20;;;;;;;5.50;4.37;;;;;;;5.69;70.83;98300.97;5075788;28;20128;-75
2021/03/22 06:47:06;;;;;;;6.32;5.10;;;;;;;5.43;71.15;98279.59;5075850;28;20036;-75
2021/03/22 06:49:37;;;;;;;4.77;4.27;;;;;;;5.15;70.75;98220.94;5075619;28;20104;-75
2021/03/22 06:52:09;;;;;;;4.60;4.20;;;;;;;5.59;70.47;98283.91;5075898;28;20145;-76
2021/03/22 06:54:42;;;;;;;4.80;4.00;;;;;;;5.42;70.51;98250.00;5076345;28;20039;-75
2021/03/22 06:57:14;;;;;;;6.73;6.00;;;;;;;5.32;70.77;98235.53;5070600;28;20028;-76
2021/03/22 07:00:00;;;;;;;8.63;7.43;;;;;;;5.31;70.76;98226.88;5074401;28;20012;-77
2021/03/22 07:02:25;;;;;;;7.10;6.10;;;;;;;5.54;70.46;98250.38;5072604;28;20107;-76
2021/03/22 07:04:51;;;;;;;6.53;5.43;;;;;;;5.33;70.84;98232.75;5078080;28;20059;-76
2021/03/22 07:07:16;;;;;;;5.67;5.17;;;;;;;5.68;70.57;98273.16;5082321;28;20099;-76
2021/03/22 07:10:01;;;;;;;7.20;5.93;;;;;;;5.46;70.32;98234.75;5086393;28;20079;-76
2021/03/22 07:12:39;;;;;;;7.17;6.43;;;;;;;5.19;70.38;98188.19;5062853;28;20032;-76
2021/03/22 07:15:16;;;;;;;9.90;8.00;;;;;;;5.71;70.61;98280.66;5074178;28;20031;-77
2021/03/22 07:17:42;;;;;;;8.60;7.33;;;;;;;5.55;70.62;98245.97;5065833;28;20385;-76
2021/03/22 07:20:14;;;;;;;9.37;6.60;;;;;;;5.17;69.68;98198.03;5074431;28;20036;-75
2021/03/22 07:22:40;;;;;;;7.73;5.90;;;;;;;5.59;69.95;98281.28;5067290;28;20044;-77
2021/03/22 07:25:40;;;;;;;9.47;6.50;;;;;;;5.55;70.11;98269.53;5043096;28;20064;-84
2021/03/22 07:28:16;;;;;;;7.43;5.87;;;;;;;5.50;69.40;98258.78;5046598;28;20071;-76
2021/03/22 07:30:41;;;;;;;10.93;7.57;;;;;;;5.52;69.92;98259.41;5036724;28;20036;-79
2021/03/22 07:33:22;;;;;;;8.50;6.90;;;;;;;5.29;69.67;98223.63;5055890;28;20104;-77
2021/03/22 07:36:44;;;;;;;9.40;7.30;;;;;;;5.52;69.48;98270.69;5055120;28;20024;-79
2021/03/22 07:39:18;;;;;;;11.20;7.00;;;;;;;4.90;69.75;98181.06;5014180;28;20036;-79
2021/03/22 07:42:04;;;;;;;14.43;7.97;;;;;;;5.26;69.58;98234.44;5032636;28;20040;-82
2021/03/22 07:44:51;;;;;;;17.03;7.87;;;;;;;5.42;69.40;98273.56;5040070;28;20052;-78
2021/03/22 07:47:45;;;;;;;16.70;10.27;;;;;;;5.26;70.07;98254.56;5051678;28;20033;-77
2021/03/22 07:50:13;;;;;;;9.27;6.63;;;;;;;5.34;69.86;98262.34;5052036;28;20017;-76
2021/03/22 07:52:43;;;;;;;8.97;6.90;;;;;;;5.22;69.51;98232.34;5051162;28;20093;-76
2021/03/22 07:55:32;;;;;;;9.43;7.60;;;;;;;5.40;69.13;98269.50;5040396;28;20029;-79
2021/03/22 07:58:33;;;;;;;7.83;6.57;;;;;;;5.26;69.39;98241.47;5050709;28;20059;-75
2021/03/22 08:01:24;;;;;;;6.73;6.03;;;;;;;5.20;69.39;98242.16;5053853;28;20112;-75
2021/03/22 08:04:16;;;;;;;7.97;6.37;;;;;;;4.84;69.38;98181.78;5045766;28;20067;-75
2021/03/22 08:07:20;;;;;;;8.40;6.35;;;;;;;5.26;70.18;98255.38;5053968;28;20055;-75
2021/03/22 08:10:20;;;;;;;7.77;6.80;;;;;;;5.31;70.59;98260.06;5055644;28;20039;-75
2021/03/22 08:13:31;;;;;;;7.90;6.23;;;;;;;5.40;69.50;98267.69;5055633;28;20071;-77
2021/03/22 08:16:38;;;;;;;7.47;6.20;;;;;;;5.28;69.73;98250.78;5048235;28;20040;-75
2021/03/22 08:19:13;;;;;;;5.23;4.73;;;;;;;5.40;69.79;98264.25;5050880;28;20064;-77
2021/03/22 08:21:49;;;;;;;5.47;4.40;;;;;;;5.22;69.75;98245.44;5055140;28;20331;-82
2021/03/22 08:24:38;;;;;;;7.67;5.97;;;;;;;5.33;69.60;98255.47;5052994;28;20051;-77
2021/03/22 08:27:17;;;;;;;8.97;7.23;;;;;;;5.28;70.01;98257.81;5052297;28;20416;-74
2021/03/22 08:30:08;;;;;;;8.30;6.47;;;;;;;5.33;69.50;98256.28;5051113;28;20027;-80
2021/03/22 08:32:50;;;;;;;7.70;6.50;;;;;;;5.18;69.64;98210.94;5054243;28;20029;-84
2021/03/22 08:35:40;;;;;;;8.20;6.50;;;;;;;5.36;69.42;98242.03;5055482;28;20021;-80
2021/03/22 08:38:12;;;;;;;8.77;7.07;;;;;;;5.38;69.34;98237.44;5052830;28;20110;-75
2021/03/22 08:40:55;;;;;;;7.60;6.30;;;;;;;5.39;69.81;98237.28;5055229;28;20056;-85
2021/03/22 08:43:55;;;;;;;8.50;6.13;;;;;;;5.45;69.41;98242.78;5054786;28;20136;-83
2021/03/22 08:46:30;;;;;;;5.67;5.00;;;;;;;5.16;69.22;98209.47;5047144;23;20060;-80
2021/03/22 08:48:58;;;;;;;7.20;5.57;;;;;;;5.40;69.23;98246.75;5017888;28;20329;-82
2021/03/22 08:51:26;;;;;;;6.10;4.63;;;;;;;5.37;69.19;98248.91;5031976;28;20476;-80
2021/03/22 08:53:53;;;;;;;6.63;5.70;;;;;;;5.41;69.43;98253.63;5033623;28;20386;-81
2021/03/22 08:56:30;;;;;;;6.07;5.47;;;;;;;5.22;69.28;98238.41;5031795;28;20025;-79
2021/03/22 08:59:00;;;;;;;7.20;5.40;;;;;;;5.01;68.90;98222.50;5030370;28;20466;-78
2021/03/22 09:01:35;;;;;;;6.27;4.80;;;;;;;5.10;69.00;98188.25;5041327;28;20025;-76
2021/03/22 09:04:25;;;;;;;6.53;5.17;;;;;;;5.41;69.34;98234.47;5041816;28;20091;-79
2021/03/22 09:07:03;;;;;;;10.37;7.20;;;;;;;5.38;69.50;98233.03;5040028;28;20028;-76
2021/03/22 09:09:31;;;;;;;4.87;4.23;;;;;;;5.30;69.28;98240.13;5039744;28;20025;-80
2021/03/22 09:12:00;;;;;;;4.63;3.67;;;;;;;5.12;69.46;98206.41;5039332;28;20018;-78
2021/03/22 09:14:25;;;;;;;5.63;4.13;;;;;;;5.37;69.42;98228.78;5039740;28;20029;-79
2021/03/22 09:16:54;;;;;;;4.67;4.20;;;;;;;4.55;69.02;98081.34;5045250;28;20109;-77
2021/03/22 09:19:22;;;;;;;9.10;6.50;;;;;;;5.42;69.06;98220.41;5038103;28;20017;-78
2021/03/22 09:21:52;;;;;;;8.20;5.37;;;;;;;5.23;69.03;98198.16;5032593;28;20029;-80
2021/03/22 09:24:36;;;;;;;5.87;5.23;;;;;;;5.27;69.42;98196.81;5039867;28;20103;-76
2021/03/22 09:27:04;;;;;;;5.30;4.80;;;;;;;5.20;69.32;98181.97;5038983;28;20021;-77
2021/03/22 09:29:39;;;;;;;5.53;4.90;;;;;;;5.18;69.45;98179.53;5039438;28;20033;-77
2021/03/22 09:32:25;;;;;;;12.07;8.00;;;;;;;5.19;69.88;98181.16;5041025;28;20332;-76
2021/03/22 09:35:26;;;;;;;9.50;7.20;;;;;;;5.33;69.38;98200.53;5040161;28;20112;-82
2021/03/22 09:38:22;;;;;;;14.03;10.33;;;;;;;5.37;69.51;98209.66;5039526;28;20361;-83
2021/03/22 09:40:51;;;;;;;12.00;8.43;;;;;;;5.37;69.92;98207.84;5039092;28;20029;-77
2021/03/22 09:43:17;;;;;;;8.07;6.73;;;;;;;5.35;69.71;98217.69;5040833;28;20220;-82
2021/03/22 09:45:55;;;;;;;10.30;7.77;;;;;;;5.39;69.57;98218.94;5040480;28;20115;-78
2021/03/22 09:48:25;;;;;;;8.00;6.53;;;;;;;5.22;69.59;98198.34;5040986;28;20017;-82
2021/03/22 09:51:09;;;;;;;10.67;7.57;;;;;;;5.43;69.72;98227.25;5056404;28;20022;-79
2021/03/22 09:53:46;;;;;;;9.43;6.67;;;;;;;5.29;69.93;98196.63;5038621;28;20116;-78
2021/03/22 09:56:43;;;;;;;8.17;6.90;;;;;;;5.48;69.59;98238.00;5034973;28;20021;-76
2021/03/22 09:59:32;;;;;;;7.33;5.77;;;;;;;4.81;69.62;98140.28;5028319;28;20359;-84
2021/03/22 10:02:00;;;;;;;9.77;7.33;;;;;;;5.44;69.59;98234.13;5028413;28;20025;-83
2021/03/22 10:04:34;;;;;;;6.13;4.97;;;;;;;5.46;69.50;98234.75;5038844;28;20026;-75
2021/03/22 10:07:25;;;;;;;7.80;6.13;;;;;;;5.50;69.30;98243.88;5040642;28;20021;-76
2021/03/22 10:09:56;;;;;;;9.23;6.57;;;;;;;5.41;69.20;98229.25;5037932;28;20394;-76
2021/03/22 10:12:31;;;;;;;7.32;6.03;;;;;;;5.13;69.73;98188.91;5028819;28;20085;-81
2021/03/22 10:15:11;;;;;;;10.53;7.30;;;;;;;5.59;69.36;98247.25;5036298;28;20029;-78
2021/03/22 10:17:57;;;;;;;9.50;7.00;;;;;;;5.59;69.41;98252.47;5035795;28;20155;-78
2021/03/22 10:20:35;;;;;;;10.33;8.17;;;;;;;5.60;69.31;98246.25;5034033;28;20037;-76
2021/03/22 10:23:23;;;;;;;9.67;7.17;;;;;;;5.57;69.54;98242.19;5039033;28;20029;-77
2021/03/22 10:25:52;;;;;;;9.50;7.33;;;;;;;5.53;69.12;98245.34;5023353;28;20447;-77
2021/03/22 10:28:24;;;;;;;10.23;7.53;;;;;;;5.23;69.18;98216.47;5037041;28;20079;-76
2021/03/22 10:30:59;;;;;;;7.45;6.53;;;;;;;5.30;69.37;98246.19;5037920;28;20116;-77
2021/03/22 10:33:26;;;;;;;8.70;6.73;;;;;;;5.16;69.47;98219.94;5052342;28;20404;-77
2021/03/22 10:35:54;;;;;;;8.30;6.77;;;;;;;5.04;69.84;98204.66;5035156;28;20025;-77
2021/03/22 10:38:26;;;;;;;8.13;7.10;;;;;;;5.41;69.62;98237.91;5028004;28;20022;-79
2021/03/22 10:40:51;;;;;;;8.05;6.35;;;;;;;5.32;69.46;98218.03;5035687;28;20025;-77
2021/03/22 10:43:39;;;;;;;7.60;6.80;;;;;;;5.42;70.09;98223.00;5036026;28;20029;-77
2021/03/22 10:46:26;;;;;;;6.07;5.40;;;;;;;4.98;69.44;98152.25;5034799;28;20040;-76
2021/03/22 10:49:14;;;;;;;7.80;6.67;;;;;;;5.17;69.32;98164.81;5035368;28;20021;-77
2021/03/22 10:51:46;;;;;;;9.40;7.93;;;;;;;5.62;69.32;98216.28;5033895;28;20359;-76
2021/03/22 10:54:12;;;;;;;7.83;6.73;;;;;;;5.68;69.08;98220.78;5034649;28;20030;-76
2021/03/22 10:56:47;;;;;;;9.40;6.77;;;;;;;5.70;69.17;98204.91;5035127;28;20363;-78
2021/03/22 10:59:19;;;;;;;9.20;7.63;;;;;;;5.40;69.30;98147.28;5035288;28;20026;-77
2021/03/22 11:01:45;;;;;;;9.93;7.80;;;;;;;5.55;68.86;98164.81;5035778;28;20104;-77
2021/03/22 11:04:18;;;;;;;5.13;4.63;;;;;;;5.17;69.28;98106.44;5035477;28;20025;-76
2021/03/22 11:06:46;;;;;;;4.17;3.43;;;;;;;5.59;69.15;98156.41;5034328;28;20048;-77
2021/03/22 11:09:20;;;;;;;6.07;5.33;;;;;;;5.69;68.85;98180.53;5034975;28;20052;-77
2021/03/22 11:11:46;;;;;;;5.57;5.07;;;;;;;5.66;68.68;98186.13;5034463;28;20032;-78
2021/03/22 11:14:16;;;;;;;4.30;3.90;;;;;;;5.55;68.86;98159.56;5033317;28;20396;-76
2021/03/22 11:16:43;;;;;;;4.77;3.97;;;;;;;5.28;68.73;98119.13;5035947;28;20021;-76
2021/03/22 11:19:28;;;;;;;4.77;4.23;;;;;;;5.81;68.99;98201.84;5036141;28;20024;-77
2021/03/22 11:21:57;;;;;;;4.30;3.80;;;;;;;5.61;68.90;98180.63;5035069;28;20181;-77
2021/03/22 11:24:34;;;;;;;4.87;4.37;;;;;;;5.94;69.03;98211.72;5049394;28;20037;-75
2021/03/22 11:27:03;;;;;;;5.97;3.70;;;;;;;5.74;68.84;98196.50;5035935;28;20021;-75
2021/03/22 11:29:28;;;;;;;6.13;4.50;;;;;;;5.76;68.66;98188.47;5048648;28;20053;-78
2021/03/22 11:32:05;;;;;;;7.33;5.80;;;;;;;5.89;68.61;98195.69;5016475;28;20437;-79
2021/03/22 11:34:37;;;;;;;8.33;6.00;;;;;;;6.04;68.70;98218.34;5032042;28;20053;-76
2021/03/22 11:37:15;;;;;;;8.05;6.20;;;;;;;5.98;68.89;98218.25;5031666;28;20021;-76
2021/03/22 11:39:42;;;;;;;7.27;5.40;;;;;;;5.83;68.79;98199.03;5029662;28;20022;-75
2021/03/22 11:42:28;;;;;;;6.67;5.50;;;;;;;5.94;68.74;98202.03;5034745;28;20061;-76
2021/03/22 11:44:54;;;;;;;7.77;6.20;;;;;;;5.87;68.71;98193.25;5045288;28;20024;-76
2021/03/22 11:47:46;;;;;;;7.17;6.27;;;;;;;5.77;68.63;98169.16;5030521;28;20076;-75
2021/03/22 11:50:20;;;;;;;;;;;;;;;5.94;69.39;98207.28;5019521;28;20026;-76
2021/03/22 11:52:46;;;;;;;7.30;6.17;;;;;;;5.63;68.86;98154.25;5015627;28;19909;-76
2021/03/22 11:55:33;;;;;;;9.43;7.23;;;;;;;6.03;69.34;98223.75;5015716;28;20022;-76
2021/03/22 11:57:59;;;;;;;7.60;5.50;;;;;;;6.00;68.67;98221.50;5014464;28;20348;-76
2021/03/22 12:00:31;;;;;;;7.23;5.97;;;;;;;6.00;68.55;98222.31;5015521;28;20026;-74
2021/03/22 12:03:01;;;;;;;6.03;4.97;;;;;;;5.94;68.86;98230.88;5014467;28;20021;-75
2021/03/22 12:05:29;;;;;;;7.63;6.33;;;;;;;5.95;69.02;98224.66;5015392;28;20017;-75
2021/03/22 12:07:56;;;;;;;7.73;5.50;;;;;;;5.86;68.85;98203.91;5015553;28;20026;-77